createdAt,value
2022-10-18T00:01:56.768Z,4.20
2022-10-18T00:04:24.188Z,3.47
2022-10-18T00:06:51.349Z,3.38
2022-10-18T00:09:18.419Z,3.97
2022-10-18T00:11:45.549Z,3.72
2022-10-18T00:14:12.633Z,3.95
2022-10-18T00:16:39.755Z,3.78
2022-10-18T00:19:06.814Z,3.63
2022-10-18T00:21:33.935Z,3.75
2022-10-18T00:24:01.125Z,3.45
2022-10-18T00:26:29.083Z,3.38
2022-10-18T00:28:58.503Z,3.75
2022-10-18T00:31:33.052Z,3.30
2022-10-18T00:34:01.516Z,3.58
2022-10-18T00:36:29.655Z,3.28
2022-10-18T00:38:56.747Z,3.67
2022-10-18T00:41:25.111Z,3.30
2022-10-18T00:43:53.160Z,3.13
2022-10-18T00:46:20.331Z,3.28
2022-10-18T00:48:47.747Z,3.72
2022-10-18T00:51:15.727Z,3.42
2022-10-18T00:53:42.851Z,3.60
2022-10-18T00:56:09.963Z,3.20
2022-10-18T00:58:37.076Z,3.78
2022-10-18T01:01:04.403Z,3.08
2022-10-18T01:03:31.730Z,3.35
2022-10-18T01:05:58.955Z,3.60
2022-10-18T01:08:35.202Z,3.72
2022-10-18T01:11:14.023Z,3.70
2022-10-18T01:13:44.427Z,3.65
2022-10-18T01:16:26.946Z,3.63
2022-10-18T01:18:55.506Z,3.30
2022-10-18T01:21:31.504Z,3.67
2022-10-18T01:24:04.446Z,3.38
2022-10-18T01:26:43.458Z,3.80
2022-10-18T01:29:29.074Z,3.35
2022-10-18T01:32:04.569Z,3.88
2022-10-18T01:34:34.122Z,3.08
2022-10-18T01:37:02.687Z,3.35
2022-10-18T01:39:31.471Z,3.35
2022-10-18T01:42:00.194Z,3.30
2022-10-18T01:44:29.486Z,3.80
2022-10-18T01:46:57.619Z,3.05
2022-10-18T01:49:25.399Z,3.00
2022-10-18T01:51:52.494Z,3.25
2022-10-18T01:54:25.456Z,3.30
2022-10-18T01:57:10.180Z,2.97
2022-10-18T01:59:43.113Z,2.88
2022-10-18T02:02:15.413Z,3.10
2022-10-18T02:04:55.131Z,3.22
2022-10-18T02:07:28.608Z,3.28
2022-10-18T02:10:02.791Z,3.53
2022-10-18T02:12:30.725Z,3.38
2022-10-18T02:14:58.817Z,3.30
2022-10-18T02:17:27.826Z,3.05
2022-10-18T02:19:56.507Z,3.13
2022-10-18T02:22:27.131Z,3.15
2022-10-18T02:24:55.516Z,3.05
2022-10-18T02:27:23.115Z,3.00
2022-10-18T02:29:50.451Z,2.80
2022-10-18T02:32:25.759Z,3.03
2022-10-18T02:35:08.137Z,3.53
2022-10-18T02:37:37.573Z,2.85
2022-10-18T02:40:05.479Z,3.03
2022-10-18T02:42:36.730Z,3.65
2022-10-18T02:45:04.713Z,3.17
2022-10-18T02:47:32.095Z,3.08
2022-10-18T02:49:59.491Z,2.70
2022-10-18T02:52:26.561Z,3.42
2022-10-18T02:54:53.639Z,3.42
2022-10-18T02:57:20.816Z,2.80
2022-10-18T02:59:47.913Z,2.88
2022-10-18T03:02:14.988Z,3.22
2022-10-18T03:04:42.095Z,2.55
2022-10-18T03:07:09.167Z,2.92
2022-10-18T03:09:36.309Z,2.47
2022-10-18T03:12:03.498Z,2.90
2022-10-18T03:14:30.571Z,2.80
2022-10-18T03:16:57.675Z,2.78
2022-10-18T03:19:24.783Z,2.47
2022-10-18T03:21:52.055Z,2.70
2022-10-18T03:24:19.175Z,2.90
2022-10-18T03:26:46.514Z,2.60
2022-10-18T03:29:13.687Z,2.83
2022-10-18T03:31:40.771Z,2.60
2022-10-18T03:34:07.882Z,2.67
2022-10-18T03:36:35.076Z,2.20
2022-10-18T03:39:02.212Z,3.15
2022-10-18T03:41:29.307Z,2.45
2022-10-18T03:43:56.553Z,2.60
2022-10-18T03:46:23.711Z,2.40
2022-10-18T03:48:50.804Z,2.60
2022-10-18T03:51:17.888Z,3.08
2022-10-18T03:53:44.959Z,2.97
2022-10-18T03:56:12.093Z,3.80
2022-10-18T03:58:39.174Z,2.90
2022-10-18T04:01:07.046Z,2.90
2022-10-18T04:03:34.134Z,2.40
2022-10-18T04:06:03.507Z,3.03
2022-10-18T04:08:30.711Z,2.47
2022-10-18T04:10:57.786Z,2.60
2022-10-18T04:13:24.882Z,2.33
2022-10-18T04:15:51.987Z,2.58
2022-10-18T04:18:19.087Z,2.00
2022-10-18T04:20:46.178Z,2.60
2022-10-18T04:23:13.446Z,2.70
2022-10-18T04:25:40.689Z,2.42
2022-10-18T04:28:07.907Z,2.70
2022-10-18T04:30:35.011Z,2.45
2022-10-18T04:33:02.160Z,2.22
2022-10-18T04:35:29.333Z,2.60
2022-10-18T04:37:56.496Z,2.72
2022-10-18T04:40:23.612Z,2.30
2022-10-18T04:42:50.726Z,2.22
2022-10-18T04:45:17.913Z,2.30
2022-10-18T04:47:44.982Z,2.33
2022-10-18T04:50:12.092Z,2.15
2022-10-18T04:52:39.273Z,2.65
2022-10-18T04:55:06.608Z,2.42
2022-10-18T04:57:34.018Z,2.75
2022-10-18T05:00:01.289Z,2.33
2022-10-18T05:02:28.561Z,2.10
2022-10-18T05:04:55.918Z,1.98
2022-10-18T05:07:23.103Z,2.75
2022-10-18T05:09:50.237Z,2.33
2022-10-18T05:12:17.398Z,2.20
2022-10-18T05:14:44.551Z,2.28
2022-10-18T05:17:11.802Z,2.20
2022-10-18T05:19:38.931Z,2.10
2022-10-18T05:22:06.168Z,2.28
2022-10-18T05:24:33.252Z,2.40
2022-10-18T05:27:00.408Z,2.35
2022-10-18T05:29:28.581Z,2.45
2022-10-18T05:31:55.712Z,2.03
2022-10-18T05:34:22.964Z,2.45
2022-10-18T05:36:50.320Z,2.38
2022-10-18T05:39:17.543Z,2.25
2022-10-18T05:41:44.615Z,2.67
2022-10-18T05:44:11.762Z,2.17
2022-10-18T05:46:41.340Z,2.00
2022-10-18T05:49:08.499Z,2.30
2022-10-18T05:51:35.590Z,2.42
2022-10-18T05:54:02.703Z,2.53
2022-10-18T05:56:29.829Z,2.55
2022-10-18T05:58:56.978Z,1.98
2022-10-18T06:01:24.224Z,2.60
2022-10-18T06:03:51.410Z,2.35
2022-10-18T06:06:18.637Z,2.40
2022-10-18T06:08:45.732Z,2.33
2022-10-18T06:11:14.631Z,2.10
2022-10-18T06:16:09.612Z,2.17
2022-10-18T06:18:36.938Z,2.00
2022-10-18T06:21:04.203Z,2.20
2022-10-18T06:23:31.485Z,2.30
2022-10-18T06:25:59.285Z,2.05
2022-10-18T06:28:26.759Z,2.45
2022-10-18T06:30:53.944Z,1.73
2022-10-18T06:33:21.283Z,2.08
2022-10-18T06:35:57.252Z,2.20
2022-10-18T06:38:24.601Z,2.08
2022-10-18T06:40:51.837Z,1.60
2022-10-18T06:43:21.369Z,1.80
2022-10-18T06:45:49.177Z,1.88
2022-10-18T06:48:16.688Z,1.95
2022-10-18T06:50:43.957Z,2.05
2022-10-18T06:53:11.142Z,1.80
2022-10-18T06:55:38.287Z,1.70
2022-10-18T06:58:05.487Z,1.85
2022-10-18T07:00:32.616Z,1.60
2022-10-18T07:02:59.735Z,1.48
2022-10-18T07:05:26.920Z,1.67
2022-10-18T07:07:56.344Z,1.38
2022-10-18T07:10:24.154Z,1.70
2022-10-18T07:12:53.517Z,1.30
2022-10-18T07:15:24.533Z,1.70
2022-10-18T07:17:51.900Z,1.75
2022-10-18T07:20:19.018Z,1.55
2022-10-18T07:22:46.176Z,1.50
2022-10-18T07:25:13.317Z,1.60
2022-10-18T07:27:41.918Z,1.80
2022-10-18T07:30:10.179Z,1.55
2022-10-18T07:32:37.350Z,1.95
2022-10-18T07:35:04.599Z,1.58
2022-10-18T07:37:32.220Z,1.42
2022-10-18T07:39:59.670Z,1.55
2022-10-18T07:42:26.857Z,1.77
2022-10-18T07:44:54.065Z,1.65
2022-10-18T07:47:21.144Z,1.70
2022-10-18T07:49:48.265Z,2.38
2022-10-18T07:52:15.662Z,1.65
2022-10-18T07:54:42.846Z,1.85
2022-10-18T07:57:10.041Z,1.40
2022-10-18T07:59:38.768Z,1.65
2022-10-18T08:02:05.926Z,1.50
2022-10-18T08:04:33.153Z,1.40
2022-10-18T08:07:00.271Z,1.35
2022-10-18T08:09:27.556Z,1.65
2022-10-18T08:11:54.761Z,1.40
2022-10-18T08:14:21.865Z,1.30
2022-10-18T08:16:48.979Z,1.77
2022-10-18T08:19:16.087Z,1.60
2022-10-18T08:21:43.239Z,1.45
2022-10-18T08:24:10.384Z,1.40
2022-10-18T08:26:37.644Z,1.58
2022-10-18T08:29:20.991Z,1.40
2022-10-18T08:31:50.171Z,1.50
2022-10-18T08:34:19.835Z,1.60
2022-10-18T08:36:47.207Z,1.50
2022-10-18T08:39:14.336Z,1.38
2022-10-18T08:41:41.462Z,1.70
2022-10-18T08:44:14.314Z,1.45
2022-10-18T08:46:45.048Z,1.40
2022-10-18T08:49:30.610Z,1.55
2022-10-18T08:51:58.162Z,1.65
2022-10-18T08:54:33.008Z,1.83
2022-10-18T08:57:01.705Z,1.60
2022-10-18T08:59:39.834Z,1.63
2022-10-18T09:02:25.693Z,1.63
2022-10-18T09:05:09.716Z,1.40
2022-10-18T09:07:55.453Z,1.73
2022-10-18T09:10:22.643Z,1.52
2022-10-18T09:12:49.712Z,1.88
2022-10-18T09:15:18.737Z,1.60
2022-10-18T09:17:45.894Z,1.92
2022-10-18T09:20:25.058Z,1.65
2022-10-18T09:23:05.230Z,1.70
2022-10-18T09:25:35.187Z,1.20
2022-10-18T09:28:14.712Z,1.70
2022-10-18T09:30:49.482Z,1.33
2022-10-18T09:33:35.239Z,1.65
2022-10-18T09:36:03.962Z,1.20
2022-10-18T09:38:38.695Z,1.98
2022-10-18T09:41:09.387Z,1.40
2022-10-18T09:43:55.439Z,1.58
2022-10-18T09:46:24.159Z,1.65
2022-10-18T09:48:56.848Z,1.40
2022-10-18T09:51:26.353Z,1.48
2022-10-18T09:54:11.679Z,1.33
2022-10-18T09:56:42.211Z,1.50
2022-10-18T09:59:24.117Z,1.50
2022-10-18T10:01:51.267Z,1.40
2022-10-18T10:04:18.622Z,1.30
2022-10-18T10:06:52.804Z,1.60
2022-10-18T10:09:25.632Z,1.17
2022-10-18T10:11:53.126Z,1.00
2022-10-18T10:14:26.220Z,1.10
2022-10-18T10:16:59.211Z,1.15
2022-10-18T10:19:52.526Z,1.10
2022-10-18T10:22:27.058Z,1.10
2022-10-18T10:24:55.754Z,1.35
2022-10-18T10:27:29.642Z,1.20
2022-10-18T10:30:01.512Z,1.17
2022-10-18T10:32:43.407Z,0.98
2022-10-18T10:35:41.267Z,1.10
2022-10-18T10:38:23.635Z,1.08
2022-10-18T10:40:50.896Z,1.55
2022-10-18T10:43:38.689Z,1.00
2022-10-18T10:46:12.189Z,1.45
2022-10-18T10:48:57.060Z,1.17
2022-10-18T10:51:37.205Z,1.10
2022-10-18T10:54:08.327Z,1.00
2022-10-18T10:56:39.917Z,1.05
2022-10-18T10:59:11.120Z,1.20
2022-10-18T11:01:38.481Z,1.00
2022-10-18T11:04:25.973Z,0.98
2022-10-18T11:06:56.897Z,1.10
2022-10-18T11:09:27.516Z,1.13
2022-10-18T11:12:01.931Z,0.80
2022-10-18T11:14:31.983Z,1.10
2022-10-18T11:17:17.136Z,1.10
2022-10-18T11:19:44.296Z,1.00
2022-10-18T11:22:15.838Z,1.02
2022-10-18T11:24:43.134Z,1.40
2022-10-18T11:27:23.760Z,0.80
2022-10-18T11:29:50.887Z,1.10
2022-10-18T11:32:31.687Z,0.98
2022-10-18T11:35:05.254Z,1.08
2022-10-18T11:37:38.366Z,0.90
2022-10-18T11:40:24.431Z,0.90
2022-10-18T11:43:02.200Z,0.80
2022-10-18T11:45:35.972Z,0.95
2022-10-18T11:48:08.915Z,0.60
2022-10-18T11:50:40.873Z,0.90
2022-10-18T11:53:15.369Z,0.85
2022-10-18T11:56:07.336Z,0.80
2022-10-18T11:58:47.140Z,0.93
2022-10-18T12:01:14.356Z,1.05
2022-10-18T12:03:50.202Z,1.25
2022-10-18T12:06:18.547Z,0.95
2022-10-18T12:08:55.444Z,1.00
2022-10-18T12:11:29.104Z,0.80
2022-10-18T12:14:19.471Z,0.70
2022-10-18T12:16:51.386Z,0.70
2022-10-18T12:19:26.704Z,1.30
2022-10-18T12:24:23.363Z,0.98
2022-10-18T12:26:52.661Z,0.90
2022-10-18T12:29:19.855Z,1.00
2022-10-18T12:31:50.835Z,1.00
2022-10-18T12:34:23.997Z,1.25
2022-10-18T12:37:15.276Z,1.00
2022-10-18T12:40:08.675Z,1.00
2022-10-18T12:42:34.527Z,0.80
2022-10-18T12:45:06.907Z,0.75
2022-10-18T12:47:34.410Z,1.10
2022-10-18T12:50:03.379Z,0.75
2022-10-18T12:52:33.787Z,0.90
2022-10-18T12:55:21.195Z,0.82
2022-10-18T12:57:54.100Z,0.80
2022-10-18T13:00:30.268Z,1.17
2022-10-18T13:03:12.835Z,0.70
2022-10-18T13:05:54.722Z,1.73
2022-10-18T13:08:28.131Z,1.00
2022-10-18T13:11:10.538Z,0.70
2022-10-18T13:13:41.759Z,0.90
2022-10-18T13:16:22.087Z,0.75
2022-10-18T13:19:11.892Z,0.95
2022-10-18T13:21:48.309Z,1.02
2022-10-18T13:24:15.536Z,0.82
2022-10-18T13:26:54.152Z,0.73
2022-10-18T13:29:37.112Z,0.82
2022-10-18T13:32:13.398Z,0.85
2022-10-18T13:34:40.689Z,0.80
2022-10-18T13:37:07.884Z,0.80
2022-10-18T13:39:35.012Z,1.25
2022-10-18T13:42:02.157Z,0.73
2022-10-18T13:44:30.436Z,0.80
2022-10-18T13:46:57.520Z,0.75
2022-10-18T13:49:30.783Z,0.90
2022-10-18T13:51:57.888Z,0.90
2022-10-18T13:54:32.985Z,0.88
2022-10-18T13:57:18.953Z,0.93
2022-10-18T13:59:48.929Z,0.68
2022-10-18T14:02:30.719Z,0.90
2022-10-18T14:05:24.678Z,0.98
2022-10-18T14:07:54.421Z,0.90
2022-10-18T14:12:57.293Z,0.70
2022-10-18T14:15:29.209Z,1.10
2022-10-18T14:18:16.833Z,0.60
2022-10-18T14:21:01.416Z,0.60
2022-10-18T14:23:37.325Z,0.95
2022-10-18T14:26:22.912Z,1.00
2022-10-18T14:29:08.521Z,0.85
2022-10-18T14:31:35.865Z,0.75
2022-10-18T14:34:03.445Z,0.93
2022-10-18T14:36:34.767Z,0.90
2022-10-18T14:39:03.256Z,0.60
2022-10-18T14:41:31.502Z,1.02
2022-10-18T14:44:16.655Z,0.90
2022-10-18T14:46:44.820Z,0.90
2022-10-18T14:49:12.792Z,0.85
2022-10-18T14:51:41.007Z,0.90
2022-10-18T14:54:08.761Z,0.80
2022-10-18T14:56:40.381Z,0.80
2022-10-18T14:59:13.498Z,0.80
2022-10-18T15:01:40.719Z,0.90
2022-10-18T15:04:10.937Z,1.10
2022-10-18T15:06:42.784Z,0.98
2022-10-18T15:09:10.562Z,1.00
2022-10-18T15:11:37.888Z,0.90
2022-10-18T15:14:08.780Z,0.80
2022-10-18T15:16:38.678Z,0.90
2022-10-18T15:19:07.912Z,1.00
2022-10-18T15:21:36.223Z,1.10
2022-10-18T15:24:28.617Z,1.05
2022-10-18T15:26:58.874Z,0.80
2022-10-18T15:29:26.096Z,0.95
2022-10-18T15:31:53.224Z,0.85
2022-10-18T15:34:20.439Z,1.08
2022-10-18T15:36:48.372Z,0.80
2022-10-18T15:39:23.005Z,0.90
2022-10-18T15:41:57.557Z,1.17
2022-10-18T15:44:24.775Z,0.60
2022-10-18T15:46:53.099Z,0.80
2022-10-18T15:49:43.092Z,1.10
2022-10-18T15:52:13.008Z,1.17
2022-10-18T15:54:40.153Z,0.98
2022-10-18T15:57:08.388Z,0.70
2022-10-18T15:59:35.826Z,1.20
2022-10-18T16:02:02.991Z,0.73
2022-10-18T16:04:33.654Z,0.90
2022-10-18T16:07:01.170Z,1.00
2022-10-18T16:09:29.218Z,0.60
2022-10-18T16:11:58.094Z,1.20
2022-10-18T16:14:26.581Z,0.65
2022-10-18T16:16:56.674Z,0.77
2022-10-18T16:19:24.040Z,1.13
2022-10-18T16:21:52.402Z,0.82
2022-10-18T16:24:20.144Z,0.90
2022-10-18T16:26:47.378Z,0.90
2022-10-18T16:29:21.640Z,0.75
2022-10-18T16:31:50.815Z,0.57
2022-10-18T16:34:18.702Z,0.90
2022-10-18T16:36:46.130Z,0.90
2022-10-18T16:39:17.519Z,1.02
2022-10-18T16:41:47.768Z,1.17
2022-10-18T16:44:16.370Z,1.02
2022-10-18T16:46:43.871Z,0.90
2022-10-18T16:49:22.752Z,0.90
2022-10-18T16:51:50.361Z,0.85
2022-10-18T16:54:17.452Z,0.85
2022-10-18T16:56:44.741Z,1.00
2022-10-18T16:59:22.240Z,0.90
2022-10-18T17:01:49.419Z,0.80
2022-10-18T17:04:16.606Z,1.42
2022-10-18T17:06:43.951Z,1.23
2022-10-18T17:09:13.157Z,1.20
2022-10-18T17:11:40.322Z,1.33
2022-10-18T17:14:07.419Z,1.02
2022-10-18T17:16:35.698Z,1.35
2022-10-18T17:19:04.485Z,1.35
2022-10-18T17:21:33.502Z,1.20
2022-10-18T17:24:06.066Z,1.30
2022-10-18T17:26:33.953Z,1.30
2022-10-18T17:29:02.516Z,1.27
2022-10-18T17:31:30.384Z,1.45
2022-10-18T17:33:58.809Z,1.40
2022-10-18T17:36:26.417Z,1.50
2022-10-18T17:38:54.119Z,1.50
2022-10-18T17:41:21.765Z,1.15
2022-10-18T17:43:50.799Z,1.50
2022-10-18T17:46:18.211Z,1.63
2022-10-18T17:48:45.650Z,1.63
2022-10-18T17:51:14.430Z,1.58
2022-10-18T17:53:41.613Z,1.27
2022-10-18T17:56:08.804Z,1.60
2022-10-18T17:58:36.157Z,1.50
2022-10-18T18:01:12.477Z,1.80
2022-10-18T18:03:40.137Z,2.03
2022-10-18T18:06:34.135Z,1.90
2022-10-18T18:09:04.822Z,1.40
2022-10-18T18:11:32.135Z,1.70
2022-10-18T18:13:59.507Z,1.75
2022-10-18T18:16:28.137Z,2.00
2022-10-18T18:18:56.451Z,1.85
2022-10-18T18:21:24.268Z,2.42
2022-10-18T18:23:51.768Z,2.05
2022-10-18T18:26:19.668Z,1.65
2022-10-18T18:28:47.015Z,1.75
2022-10-18T18:31:15.576Z,2.20
2022-10-18T18:33:42.927Z,2.40
2022-10-18T18:36:10.287Z,2.03
2022-10-18T18:38:38.196Z,2.40
2022-10-18T18:41:12.652Z,2.33
2022-10-18T18:43:40.505Z,2.75
2022-10-18T18:46:08.267Z,2.45
2022-10-18T18:48:35.766Z,1.83
2022-10-18T18:51:06.564Z,2.50
2022-10-18T18:53:33.709Z,2.10
2022-10-18T18:56:07.172Z,2.58
2022-10-18T18:58:37.799Z,2.13
2022-10-18T19:01:08.677Z,2.00
2022-10-18T19:03:36.139Z,2.17
2022-10-18T19:06:08.988Z,1.80
2022-10-18T19:08:37.673Z,2.03
2022-10-18T19:11:08.137Z,2.35
2022-10-18T19:13:36.588Z,2.03
2022-10-18T19:16:16.023Z,1.80
2022-10-18T19:18:43.114Z,2.08
2022-10-18T19:21:10.213Z,1.95
2022-10-18T19:23:37.274Z,2.28
2022-10-18T19:26:11.296Z,2.53
2022-10-18T19:28:38.516Z,2.28
2022-10-18T19:31:06.956Z,2.35
2022-10-18T19:33:47.861Z,2.35
2022-10-18T19:36:21.255Z,2.40
2022-10-18T19:38:48.431Z,2.42
2022-10-18T19:41:15.594Z,2.22
2022-10-18T19:43:42.724Z,2.30
2022-10-18T19:46:09.955Z,2.53
2022-10-18T19:48:37.183Z,2.25
2022-10-18T19:51:05.223Z,2.65
2022-10-18T19:53:32.663Z,2.78
2022-10-18T19:56:00.467Z,2.65
2022-10-18T19:58:27.703Z,2.28
2022-10-18T20:00:58.138Z,2.22
2022-10-18T20:03:25.548Z,2.58
2022-10-18T20:05:59.248Z,2.53
2022-10-18T20:08:27.142Z,2.53
2022-10-18T20:10:54.432Z,3.10
2022-10-18T20:13:22.474Z,2.90
2022-10-18T20:15:50.435Z,2.67
2022-10-18T20:18:18.614Z,2.88
2022-10-18T20:20:48.123Z,2.13
2022-10-18T20:23:16.215Z,2.83
2022-10-18T20:25:43.513Z,2.85
2022-10-18T20:28:10.617Z,2.65
2022-10-18T20:30:37.728Z,2.22
2022-10-18T20:33:05.108Z,2.65
2022-10-18T20:35:32.964Z,2.40
2022-10-18T20:38:00.185Z,2.55
2022-10-18T20:40:27.316Z,2.53
2022-10-18T20:42:54.452Z,2.40
2022-10-18T20:45:21.595Z,3.25
2022-10-18T20:47:48.764Z,2.08
2022-10-18T20:50:15.936Z,1.80
2022-10-18T20:52:46.752Z,1.75
2022-10-18T20:55:13.993Z,2.13
2022-10-18T20:57:41.450Z,2.33
2022-10-18T21:00:11.511Z,2.08
2022-10-18T21:02:38.640Z,2.10
2022-10-18T21:05:05.918Z,2.28
2022-10-18T21:07:33.333Z,2.67
2022-10-18T21:10:00.720Z,2.40
2022-10-18T21:12:29.070Z,2.33
2022-10-18T21:14:56.340Z,2.00
2022-10-18T21:17:23.483Z,1.80
2022-10-18T21:19:50.619Z,2.95
2022-10-18T21:22:17.764Z,2.38
2022-10-18T21:24:45.330Z,1.92
2022-10-18T21:27:12.452Z,1.83
2022-10-18T21:29:39.543Z,1.67
2022-10-18T21:32:06.636Z,1.73
2022-10-18T21:34:33.711Z,2.35
2022-10-18T21:37:00.865Z,2.00
2022-10-18T21:39:28.128Z,2.03
2022-10-18T21:41:55.227Z,1.92
2022-10-18T21:44:22.478Z,1.67
2022-10-18T21:46:49.794Z,1.75
2022-10-18T21:49:17.352Z,1.73
2022-10-18T21:51:44.700Z,1.95
2022-10-18T21:54:13.427Z,2.55
2022-10-18T21:56:40.675Z,1.50
2022-10-18T21:59:08.140Z,1.75
2022-10-18T22:01:36.450Z,1.88
2022-10-18T22:04:05.344Z,1.70
2022-10-18T22:11:31.354Z,1.80
2022-10-18T22:13:58.753Z,2.13
2022-10-18T22:16:26.231Z,1.60
2022-10-18T22:18:54.096Z,1.70
2022-10-18T22:21:21.386Z,1.77
2022-10-18T22:23:50.074Z,2.03
2022-10-18T22:26:19.588Z,2.10
2022-10-18T22:28:47.189Z,1.70
2022-10-18T22:31:18.213Z,1.92
2022-10-18T22:33:46.146Z,2.10
2022-10-18T22:36:13.568Z,1.92
2022-10-18T22:38:40.817Z,1.92
2022-10-18T22:41:09.167Z,1.60
2022-10-18T22:43:36.625Z,1.60
2022-10-18T22:46:08.121Z,2.15
2022-10-18T22:48:35.910Z,1.80
2022-10-18T22:51:03.787Z,1.65
2022-10-18T22:53:31.228Z,1.90
2022-10-18T22:55:58.392Z,1.80
2022-10-18T22:58:25.543Z,2.20
2022-10-18T23:00:52.644Z,2.00
2022-10-18T23:03:19.829Z,1.90
2022-10-18T23:05:47.290Z,1.92
2022-10-18T23:08:15.255Z,3.20
2022-10-18T23:10:42.869Z,1.67
2022-10-18T23:13:10.836Z,1.85
2022-10-18T23:15:41.177Z,1.35
2022-10-18T23:18:08.303Z,1.45
2022-10-18T23:20:35.420Z,1.65
2022-10-18T23:23:02.533Z,1.40
2022-10-18T23:25:29.626Z,1.70
2022-10-18T23:27:57.846Z,1.80
2022-10-18T23:30:25.147Z,1.77
2022-10-18T23:32:52.285Z,1.35
2022-10-18T23:35:19.437Z,1.42
2022-10-18T23:37:46.544Z,1.52
2022-10-18T23:40:13.687Z,1.70
2022-10-18T23:42:40.777Z,1.40
2022-10-18T23:45:08.297Z,1.42
2022-10-18T23:47:35.735Z,1.52
2022-10-18T23:50:03.054Z,1.50
2022-10-18T23:52:30.283Z,1.63
2022-10-18T23:54:57.448Z,1.33
2022-10-18T23:57:24.533Z,1.30
2022-10-18T23:59:51.626Z,1.50
